sensor_id;sensor_type;location;lat;lon;timestamp;temperature;humidity
23147;DHT22;11742;53.532;-1.478;2024-03-08T00:01:31;9.30;99.90
23147;DHT22;11742;53.532;-1.478;2024-03-08T00:04:16;9.30;99.90
23147;DHT22;11742;53.532;-1.478;2024-03-08T00:07:00;9.30;99.90
23147;DHT22;11742;53.532;-1.478;2024-03-08T00:09:44;9.30;99.90
23147;DHT22;11742;53.532;-1.478;2024-03-08T00:12:28;9.30;99.90
23147;DHT22;11742;53.532;-1.478;2024-03-08T00:15:16;9.30;99.90
23147;DHT22;11742;53.532;-1.478;2024-03-08T00:18:00;9.30;99.90
23147;DHT22;11742;53.532;-1.478;2024-03-08T00:20:45;9.30;99.90
23147;DHT22;11742;53.532;-1.478;2024-03-08T00:23:30;9.30;99.90
23147;DHT22;11742;53.532;-1.478;2024-03-08T00:26:14;9.20;99.90
23147;DHT22;11742;53.532;-1.478;2024-03-08T00:28:58;9.20;99.90
23147;DHT22;11742;53.532;-1.478;2024-03-08T00:31:42;9.20;99.90
23147;DHT22;11742;53.532;-1.478;2024-03-08T00:34:27;9.20;99.90
23147;DHT22;11742;53.532;-1.478;2024-03-08T00:37:11;9.20;99.90
23147;DHT22;11742;53.532;-1.478;2024-03-08T00:39:55;9.20;99.90
23147;DHT22;11742;53.532;-1.478;2024-03-08T00:42:39;9.20;99.90
23147;DHT22;11742;53.532;-1.478;2024-03-08T00:45:25;9.20;99.90
23147;DHT22;11742;53.532;-1.478;2024-03-08T00:48:09;9.20;99.90
23147;DHT22;11742;53.532;-1.478;2024-03-08T00:50:55;9.20;99.90
23147;DHT22;11742;53.532;-1.478;2024-03-08T00:53:39;9.20;99.90
23147;DHT22;11742;53.532;-1.478;2024-03-08T00:56:23;9.20;99.90
23147;DHT22;11742;53.532;-1.478;2024-03-08T00:59:08;9.20;99.90
23147;DHT22;11742;53.532;-1.478;2024-03-08T01:01:53;9.20;99.90
23147;DHT22;11742;53.532;-1.478;2024-03-08T01:04:37;9.20;99.90
23147;DHT22;11742;53.532;-1.478;2024-03-08T01:07:22;9.20;99.90
23147;DHT22;11742;53.532;-1.478;2024-03-08T01:10:07;9.20;99.90
23147;DHT22;11742;53.532;-1.478;2024-03-08T01:12:53;9.20;99.90
23147;DHT22;11742;53.532;-1.478;2024-03-08T01:15:40;9.10;99.90
23147;DHT22;11742;53.532;-1.478;2024-03-08T01:18:25;9.10;99.90
23147;DHT22;11742;53.532;-1.478;2024-03-08T01:21:09;9.10;99.90
23147;DHT22;11742;53.532;-1.478;2024-03-08T01:23:54;9.10;99.90
23147;DHT22;11742;53.532;-1.478;2024-03-08T01:26:38;9.10;99.90
23147;DHT22;11742;53.532;-1.478;2024-03-08T01:29:23;9.10;99.90
23147;DHT22;11742;53.532;-1.478;2024-03-08T01:32:07;9.10;99.90
23147;DHT22;11742;53.532;-1.478;2024-03-08T01:34:52;9.10;99.90
23147;DHT22;11742;53.532;-1.478;2024-03-08T01:37:36;9.10;99.90
23147;DHT22;11742;53.532;-1.478;2024-03-08T01:40:21;9.10;99.90
23147;DHT22;11742;53.532;-1.478;2024-03-08T01:43:26;9.10;99.90
23147;DHT22;11742;53.532;-1.478;2024-03-08T01:46:19;9.10;99.90
23147;DHT22;11742;53.532;-1.478;2024-03-08T01:49:06;9.10;99.90
23147;DHT22;11742;53.532;-1.478;2024-03-08T01:51:50;9.10;99.90
23147;DHT22;11742;53.532;-1.478;2024-03-08T01:54:35;9.10;99.90
23147;DHT22;11742;53.532;-1.478;2024-03-08T01:57:21;9.10;99.90
23147;DHT22;11742;53.532;-1.478;2024-03-08T02:00:05;9.10;99.90
23147;DHT22;11742;53.532;-1.478;2024-03-08T02:02:51;9.10;99.90
23147;DHT22;11742;53.532;-1.478;2024-03-08T02:05:40;9.10;99.90
23147;DHT22;11742;53.532;-1.478;2024-03-08T02:08:24;9.10;99.90
23147;DHT22;11742;53.532;-1.478;2024-03-08T02:11:09;9.10;99.90
23147;DHT22;11742;53.532;-1.478;2024-03-08T02:13:54;9.10;99.90
23147;DHT22;11742;53.532;-1.478;2024-03-08T02:16:38;9.10;99.90
23147;DHT22;11742;53.532;-1.478;2024-03-08T02:19:23;9.10;99.90
23147;DHT22;11742;53.532;-1.478;2024-03-08T02:22:07;9.10;99.90
23147;DHT22;11742;53.532;-1.478;2024-03-08T02:24:52;9.10;99.90
23147;DHT22;11742;53.532;-1.478;2024-03-08T02:27:36;9.10;99.90
23147;DHT22;11742;53.532;-1.478;2024-03-08T02:30:20;9.00;99.90
23147;DHT22;11742;53.532;-1.478;2024-03-08T02:33:05;9.10;99.90
23147;DHT22;11742;53.532;-1.478;2024-03-08T02:35:53;9.00;99.90
23147;DHT22;11742;53.532;-1.478;2024-03-08T02:38:37;9.10;99.90
23147;DHT22;11742;53.532;-1.478;2024-03-08T02:41:21;9.00;99.90
23147;DHT22;11742;53.532;-1.478;2024-03-08T02:44:06;9.00;99.90
23147;DHT22;11742;53.532;-1.478;2024-03-08T02:46:51;9.10;99.90
23147;DHT22;11742;53.532;-1.478;2024-03-08T02:49:39;9.10;99.90
23147;DHT22;11742;53.532;-1.478;2024-03-08T02:52:23;9.10;99.90
23147;DHT22;11742;53.532;-1.478;2024-03-08T02:55:08;9.00;99.90
23147;DHT22;11742;53.532;-1.478;2024-03-08T02:57:54;9.00;99.90
23147;DHT22;11742;53.532;-1.478;2024-03-08T03:00:39;9.00;99.90
23147;DHT22;11742;53.532;-1.478;2024-03-08T03:03:23;9.00;99.90
23147;DHT22;11742;53.532;-1.478;2024-03-08T03:06:07;9.00;99.90
23147;DHT22;11742;53.532;-1.478;2024-03-08T03:08:51;9.00;99.90
23147;DHT22;11742;53.532;-1.478;2024-03-08T03:11:36;9.00;99.90
23147;DHT22;11742;53.532;-1.478;2024-03-08T03:14:21;9.00;99.90
23147;DHT22;11742;53.532;-1.478;2024-03-08T03:17:05;9.00;99.90
23147;DHT22;11742;53.532;-1.478;2024-03-08T03:19:50;9.00;99.90
23147;DHT22;11742;53.532;-1.478;2024-03-08T03:22:34;9.00;99.90
23147;DHT22;11742;53.532;-1.478;2024-03-08T03:25:20;9.00;99.90
23147;DHT22;11742;53.532;-1.478;2024-03-08T03:28:12;9.00;99.90
23147;DHT22;11742;53.532;-1.478;2024-03-08T03:31:01;9.00;99.90
23147;DHT22;11742;53.532;-1.478;2024-03-08T03:33:45;9.00;99.90
23147;DHT22;11742;53.532;-1.478;2024-03-08T03:36:31;9.00;99.90
23147;DHT22;11742;53.532;-1.478;2024-03-08T03:39:15;9.00;99.90
23147;DHT22;11742;53.532;-1.478;2024-03-08T03:42:04;9.00;99.90
23147;DHT22;11742;53.532;-1.478;2024-03-08T03:44:48;9.00;99.90
23147;DHT22;11742;53.532;-1.478;2024-03-08T03:47:32;9.00;99.90
23147;DHT22;11742;53.532;-1.478;2024-03-08T03:50:16;9.00;99.90
23147;DHT22;11742;53.532;-1.478;2024-03-08T03:53:04;9.00;99.90
23147;DHT22;11742;53.532;-1.478;2024-03-08T03:55:48;9.00;99.90
23147;DHT22;11742;53.532;-1.478;2024-03-08T03:58:33;9.00;99.90
23147;DHT22;11742;53.532;-1.478;2024-03-08T04:01:17;9.00;99.90
23147;DHT22;11742;53.532;-1.478;2024-03-08T04:04:01;9.00;99.90
23147;DHT22;11742;53.532;-1.478;2024-03-08T04:06:46;9.00;99.90
23147;DHT22;11742;53.532;-1.478;2024-03-08T04:09:30;9.00;99.90
23147;DHT22;11742;53.532;-1.478;2024-03-08T04:12:15;9.00;99.90
23147;DHT22;11742;53.532;-1.478;2024-03-08T04:14:59;9.00;99.90
23147;DHT22;11742;53.532;-1.478;2024-03-08T04:17:44;9.00;99.90
23147;DHT22;11742;53.532;-1.478;2024-03-08T04:20:29;9.00;99.90
23147;DHT22;11742;53.532;-1.478;2024-03-08T04:23:15;9.00;99.90
23147;DHT22;11742;53.532;-1.478;2024-03-08T04:26:01;9.00;99.90
23147;DHT22;11742;53.532;-1.478;2024-03-08T04:28:45;9.00;99.90
23147;DHT22;11742;53.532;-1.478;2024-03-08T04:31:29;9.00;99.90
23147;DHT22;11742;53.532;-1.478;2024-03-08T04:34:15;9.00;99.90
23147;DHT22;11742;53.532;-1.478;2024-03-08T04:36:59;9.00;99.90
23147;DHT22;11742;53.532;-1.478;2024-03-08T04:39:43;9.00;99.90
23147;DHT22;11742;53.532;-1.478;2024-03-08T04:42:28;9.00;99.90
23147;DHT22;11742;53.532;-1.478;2024-03-08T04:45:14;9.00;99.90
23147;DHT22;11742;53.532;-1.478;2024-03-08T04:47:58;9.00;99.90
23147;DHT22;11742;53.532;-1.478;2024-03-08T04:50:42;9.10;99.90
23147;DHT22;11742;53.532;-1.478;2024-03-08T04:53:27;9.10;99.90
23147;DHT22;11742;53.532;-1.478;2024-03-08T04:56:11;9.00;99.90
23147;DHT22;11742;53.532;-1.478;2024-03-08T04:58:56;9.00;99.90
23147;DHT22;11742;53.532;-1.478;2024-03-08T05:01:40;9.00;99.90
23147;DHT22;11742;53.532;-1.478;2024-03-08T05:04:24;9.00;99.90
23147;DHT22;11742;53.532;-1.478;2024-03-08T05:07:08;9.00;99.90
23147;DHT22;11742;53.532;-1.478;2024-03-08T05:09:52;9.00;99.90
23147;DHT22;11742;53.532;-1.478;2024-03-08T05:12:37;9.00;99.90
23147;DHT22;11742;53.532;-1.478;2024-03-08T05:15:22;9.00;99.90
23147;DHT22;11742;53.532;-1.478;2024-03-08T05:18:07;9.00;99.90
23147;DHT22;11742;53.532;-1.478;2024-03-08T05:20:51;9.10;99.90
23147;DHT22;11742;53.532;-1.478;2024-03-08T05:23:36;9.00;99.90
23147;DHT22;11742;53.532;-1.478;2024-03-08T05:26:20;9.00;99.90
23147;DHT22;11742;53.532;-1.478;2024-03-08T05:29:06;9.00;99.90
23147;DHT22;11742;53.532;-1.478;2024-03-08T05:31:51;9.10;99.90
23147;DHT22;11742;53.532;-1.478;2024-03-08T05:34:39;9.00;99.90
23147;DHT22;11742;53.532;-1.478;2024-03-08T05:37:23;9.10;99.90
23147;DHT22;11742;53.532;-1.478;2024-03-08T05:40:08;9.00;99.90
23147;DHT22;11742;53.532;-1.478;2024-03-08T05:42:55;9.00;99.90
23147;DHT22;11742;53.532;-1.478;2024-03-08T05:45:39;9.00;99.90
23147;DHT22;11742;53.532;-1.478;2024-03-08T05:48:23;9.10;99.90
23147;DHT22;11742;53.532;-1.478;2024-03-08T05:51:09;9.10;99.90
23147;DHT22;11742;53.532;-1.478;2024-03-08T05:53:54;9.10;99.90
23147;DHT22;11742;53.532;-1.478;2024-03-08T05:56:41;9.10;99.90
23147;DHT22;11742;53.532;-1.478;2024-03-08T05:59:27;9.10;99.90
23147;DHT22;11742;53.532;-1.478;2024-03-08T06:02:11;9.10;99.90
23147;DHT22;11742;53.532;-1.478;2024-03-08T06:04:56;9.00;99.90
23147;DHT22;11742;53.532;-1.478;2024-03-08T06:07:40;9.00;99.90
23147;DHT22;11742;53.532;-1.478;2024-03-08T06:10:24;9.10;99.90
23147;DHT22;11742;53.532;-1.478;2024-03-08T06:13:09;9.10;99.90
23147;DHT22;11742;53.532;-1.478;2024-03-08T06:15:56;9.10;99.90
23147;DHT22;11742;53.532;-1.478;2024-03-08T06:18:40;9.00;99.90
23147;DHT22;11742;53.532;-1.478;2024-03-08T06:21:25;9.10;99.90
23147;DHT22;11742;53.532;-1.478;2024-03-08T06:24:12;9.10;99.90
23147;DHT22;11742;53.532;-1.478;2024-03-08T06:26:56;9.10;99.90
23147;DHT22;11742;53.532;-1.478;2024-03-08T06:29:41;9.10;99.90
23147;DHT22;11742;53.532;-1.478;2024-03-08T06:32:25;9.10;99.90
23147;DHT22;11742;53.532;-1.478;2024-03-08T06:35:09;9.10;99.90
23147;DHT22;11742;53.532;-1.478;2024-03-08T06:37:54;9.10;99.90
23147;DHT22;11742;53.532;-1.478;2024-03-08T06:40:38;9.00;99.90
23147;DHT22;11742;53.532;-1.478;2024-03-08T06:43:24;9.10;99.90
23147;DHT22;11742;53.532;-1.478;2024-03-08T06:46:17;9.10;99.90
23147;DHT22;11742;53.532;-1.478;2024-03-08T06:49:01;9.00;99.90
23147;DHT22;11742;53.532;-1.478;2024-03-08T06:51:47;9.10;99.90
23147;DHT22;11742;53.532;-1.478;2024-03-08T06:54:32;9.00;99.90
23147;DHT22;11742;53.532;-1.478;2024-03-08T06:57:16;9.10;99.90
23147;DHT22;11742;53.532;-1.478;2024-03-08T07:00:00;9.10;99.90
23147;DHT22;11742;53.532;-1.478;2024-03-08T07:02:45;9.00;99.90
23147;DHT22;11742;53.532;-1.478;2024-03-08T07:05:30;9.10;99.90
23147;DHT22;11742;53.532;-1.478;2024-03-08T07:08:14;9.10;99.90
23147;DHT22;11742;53.532;-1.478;2024-03-08T07:10:59;9.10;99.90
23147;DHT22;11742;53.532;-1.478;2024-03-08T07:13:46;9.10;99.90
23147;DHT22;11742;53.532;-1.478;2024-03-08T07:16:30;9.10;99.90
23147;DHT22;11742;53.532;-1.478;2024-03-08T07:19:15;9.10;99.90
23147;DHT22;11742;53.532;-1.478;2024-03-08T07:21:59;9.10;99.90
23147;DHT22;11742;53.532;-1.478;2024-03-08T07:24:43;9.10;99.90
23147;DHT22;11742;53.532;-1.478;2024-03-08T07:27:55;9.10;99.90
23147;DHT22;11742;53.532;-1.478;2024-03-08T07:30:40;9.10;99.90
23147;DHT22;11742;53.532;-1.478;2024-03-08T07:33:27;9.10;99.90
23147;DHT22;11742;53.532;-1.478;2024-03-08T07:36:11;9.00;99.90
23147;DHT22;11742;53.532;-1.478;2024-03-08T07:38:56;9.00;99.90
23147;DHT22;11742;53.532;-1.478;2024-03-08T07:41:41;9.10;99.90
23147;DHT22;11742;53.532;-1.478;2024-03-08T07:44:25;9.10;99.90
23147;DHT22;11742;53.532;-1.478;2024-03-08T07:47:09;9.10;99.90
23147;DHT22;11742;53.532;-1.478;2024-03-08T07:49:53;9.10;99.90
23147;DHT22;11742;53.532;-1.478;2024-03-08T07:52:38;9.10;99.90
23147;DHT22;11742;53.532;-1.478;2024-03-08T07:55:23;9.10;99.90
23147;DHT22;11742;53.532;-1.478;2024-03-08T07:58:08;9.00;99.90
23147;DHT22;11742;53.532;-1.478;2024-03-08T08:00:54;9.10;99.90
23147;DHT22;11742;53.532;-1.478;2024-03-08T08:03:38;9.00;99.90
23147;DHT22;11742;53.532;-1.478;2024-03-08T08:06:26;9.10;99.90
23147;DHT22;11742;53.532;-1.478;2024-03-08T08:09:11;9.00;99.90
23147;DHT22;11742;53.532;-1.478;2024-03-08T08:11:59;9.00;99.90
23147;DHT22;11742;53.532;-1.478;2024-03-08T08:14:43;9.00;99.90
23147;DHT22;11742;53.532;-1.478;2024-03-08T08:17:27;9.10;99.90
23147;DHT22;11742;53.532;-1.478;2024-03-08T08:20:12;9.10;99.90
23147;DHT22;11742;53.532;-1.478;2024-03-08T08:22:57;9.00;99.90
23147;DHT22;11742;53.532;-1.478;2024-03-08T08:25:43;9.10;99.90
23147;DHT22;11742;53.532;-1.478;2024-03-08T08:28:27;9.00;99.90
23147;DHT22;11742;53.532;-1.478;2024-03-08T08:31:11;9.10;99.90
23147;DHT22;11742;53.532;-1.478;2024-03-08T08:33:55;9.10;99.90
23147;DHT22;11742;53.532;-1.478;2024-03-08T08:36:42;9.10;99.90
23147;DHT22;11742;53.532;-1.478;2024-03-08T08:39:26;9.10;99.90
23147;DHT22;11742;53.532;-1.478;2024-03-08T08:42:10;9.10;99.90
23147;DHT22;11742;53.532;-1.478;2024-03-08T08:44:55;9.10;99.90
23147;DHT22;11742;53.532;-1.478;2024-03-08T08:47:41;9.10;99.90
23147;DHT22;11742;53.532;-1.478;2024-03-08T08:50:27;9.10;99.90
23147;DHT22;11742;53.532;-1.478;2024-03-08T08:53:12;9.10;99.90
23147;DHT22;11742;53.532;-1.478;2024-03-08T08:55:58;9.10;99.90
23147;DHT22;11742;53.532;-1.478;2024-03-08T08:58:42;9.10;99.90
23147;DHT22;11742;53.532;-1.478;2024-03-08T09:01:27;9.10;99.90
23147;DHT22;11742;53.532;-1.478;2024-03-08T09:04:13;9.10;99.90
23147;DHT22;11742;53.532;-1.478;2024-03-08T09:06:58;9.10;99.90
23147;DHT22;11742;53.532;-1.478;2024-03-08T09:09:42;9.10;99.90
23147;DHT22;11742;53.532;-1.478;2024-03-08T09:12:27;9.10;99.90
23147;DHT22;11742;53.532;-1.478;2024-03-08T09:15:11;9.10;99.90
23147;DHT22;11742;53.532;-1.478;2024-03-08T09:17:56;9.10;99.90
23147;DHT22;11742;53.532;-1.478;2024-03-08T09:20:40;9.10;99.90
23147;DHT22;11742;53.532;-1.478;2024-03-08T09:23:25;9.10;99.90
23147;DHT22;11742;53.532;-1.478;2024-03-08T09:26:14;9.10;99.90
23147;DHT22;11742;53.532;-1.478;2024-03-08T09:28:59;9.10;99.90
23147;DHT22;11742;53.532;-1.478;2024-03-08T09:31:44;9.10;99.90
23147;DHT22;11742;53.532;-1.478;2024-03-08T09:34:30;9.20;99.90
23147;DHT22;11742;53.532;-1.478;2024-03-08T09:37:14;9.10;99.90
23147;DHT22;11742;53.532;-1.478;2024-03-08T09:39:58;9.20;99.90
23147;DHT22;11742;53.532;-1.478;2024-03-08T09:42:43;9.20;99.90
23147;DHT22;11742;53.532;-1.478;2024-03-08T09:45:30;9.20;99.90
23147;DHT22;11742;53.532;-1.478;2024-03-08T09:48:16;9.20;99.90
23147;DHT22;11742;53.532;-1.478;2024-03-08T09:51:04;9.20;99.90
23147;DHT22;11742;53.532;-1.478;2024-03-08T09:53:48;9.20;99.90
23147;DHT22;11742;53.532;-1.478;2024-03-08T09:56:36;9.20;99.90
23147;DHT22;11742;53.532;-1.478;2024-03-08T09:59:21;9.30;99.90
23147;DHT22;11742;53.532;-1.478;2024-03-08T10:02:14;9.20;99.90
23147;DHT22;11742;53.532;-1.478;2024-03-08T10:04:59;9.30;99.90
23147;DHT22;11742;53.532;-1.478;2024-03-08T10:07:43;9.30;99.90
23147;DHT22;11742;53.532;-1.478;2024-03-08T10:10:29;9.30;99.90
23147;DHT22;11742;53.532;-1.478;2024-03-08T10:13:13;9.30;99.90
23147;DHT22;11742;53.532;-1.478;2024-03-08T10:15:58;9.30;99.90
23147;DHT22;11742;53.532;-1.478;2024-03-08T10:18:42;9.30;99.90
23147;DHT22;11742;53.532;-1.478;2024-03-08T10:21:27;9.30;99.90
23147;DHT22;11742;53.532;-1.478;2024-03-08T10:24:11;9.30;99.90
23147;DHT22;11742;53.532;-1.478;2024-03-08T10:27:01;9.30;99.90
23147;DHT22;11742;53.532;-1.478;2024-03-08T10:29:48;9.30;99.90
23147;DHT22;11742;53.532;-1.478;2024-03-08T10:32:34;9.40;99.90
23147;DHT22;11742;53.532;-1.478;2024-03-08T10:35:18;9.40;99.90
23147;DHT22;11742;53.532;-1.478;2024-03-08T10:38:05;9.40;99.90
23147;DHT22;11742;53.532;-1.478;2024-03-08T10:40:53;9.30;99.90
23147;DHT22;11742;53.532;-1.478;2024-03-08T10:47:18;9.40;99.90
23147;DHT22;11742;53.532;-1.478;2024-03-08T10:50:19;9.40;99.90
23147;DHT22;11742;53.532;-1.478;2024-03-08T10:53:07;9.40;99.90
23147;DHT22;11742;53.532;-1.478;2024-03-08T10:55:56;9.40;99.90
23147;DHT22;11742;53.532;-1.478;2024-03-08T10:58:42;9.40;99.90
23147;DHT22;11742;53.532;-1.478;2024-03-08T11:01:28;9.40;99.90
23147;DHT22;11742;53.532;-1.478;2024-03-08T11:04:13;9.40;99.90
23147;DHT22;11742;53.532;-1.478;2024-03-08T11:07:02;9.50;99.90
23147;DHT22;11742;53.532;-1.478;2024-03-08T11:09:49;9.40;99.90
23147;DHT22;11742;53.532;-1.478;2024-03-08T11:12:37;9.40;99.90
23147;DHT22;11742;53.532;-1.478;2024-03-08T11:15:22;9.50;99.90
23147;DHT22;11742;53.532;-1.478;2024-03-08T11:18:08;9.50;99.90
23147;DHT22;11742;53.532;-1.478;2024-03-08T11:20:55;9.40;99.90
23147;DHT22;11742;53.532;-1.478;2024-03-08T11:23:39;9.50;99.90
23147;DHT22;11742;53.532;-1.478;2024-03-08T11:26:28;9.50;99.90
23147;DHT22;11742;53.532;-1.478;2024-03-08T11:32:15;9.50;99.90
23147;DHT22;11742;53.532;-1.478;2024-03-08T11:35:00;9.50;99.90
23147;DHT22;11742;53.532;-1.478;2024-03-08T11:37:49;9.50;99.90
23147;DHT22;11742;53.532;-1.478;2024-03-08T11:40:35;9.50;99.90
23147;DHT22;11742;53.532;-1.478;2024-03-08T11:43:20;9.50;99.90
23147;DHT22;11742;53.532;-1.478;2024-03-08T11:46:11;9.50;99.90
23147;DHT22;11742;53.532;-1.478;2024-03-08T11:48:59;9.50;99.90
23147;DHT22;11742;53.532;-1.478;2024-03-08T11:51:44;9.50;99.90
23147;DHT22;11742;53.532;-1.478;2024-03-08T11:54:29;9.50;99.90
23147;DHT22;11742;53.532;-1.478;2024-03-08T11:57:18;9.50;99.90
23147;DHT22;11742;53.532;-1.478;2024-03-08T12:00:03;9.60;99.90
23147;DHT22;11742;53.532;-1.478;2024-03-08T12:03:06;9.50;99.90
23147;DHT22;11742;53.532;-1.478;2024-03-08T12:05:57;9.50;99.90
23147;DHT22;11742;53.532;-1.478;2024-03-08T12:08:45;9.60;99.90
23147;DHT22;11742;53.532;-1.478;2024-03-08T12:11:31;9.60;99.90
23147;DHT22;11742;53.532;-1.478;2024-03-08T12:14:15;9.60;99.90
23147;DHT22;11742;53.532;-1.478;2024-03-08T12:16:59;9.60;99.90
23147;DHT22;11742;53.532;-1.478;2024-03-08T12:19:48;9.60;99.90
23147;DHT22;11742;53.532;-1.478;2024-03-08T12:22:33;9.60;99.90
23147;DHT22;11742;53.532;-1.478;2024-03-08T12:25:17;9.60;99.90
23147;DHT22;11742;53.532;-1.478;2024-03-08T12:28:08;9.70;99.90
23147;DHT22;11742;53.532;-1.478;2024-03-08T12:31:00;9.60;99.90
23147;DHT22;11742;53.532;-1.478;2024-03-08T12:36:36;9.70;99.90
23147;DHT22;11742;53.532;-1.478;2024-03-08T12:39:21;9.70;99.90
23147;DHT22;11742;53.532;-1.478;2024-03-08T12:42:12;9.70;99.90
23147;DHT22;11742;53.532;-1.478;2024-03-08T12:44:56;9.70;99.90
23147;DHT22;11742;53.532;-1.478;2024-03-08T12:47:40;9.80;99.80
23147;DHT22;11742;53.532;-1.478;2024-03-08T12:50:26;9.80;99.70
23147;DHT22;11742;53.532;-1.478;2024-03-08T12:53:10;9.80;99.90
23147;DHT22;11742;53.532;-1.478;2024-03-08T12:55:54;9.80;99.90
23147;DHT22;11742;53.532;-1.478;2024-03-08T12:58:40;9.90;99.90
23147;DHT22;11742;53.532;-1.478;2024-03-08T13:01:25;9.90;99.90
23147;DHT22;11742;53.532;-1.478;2024-03-08T13:04:09;9.90;99.90
23147;DHT22;11742;53.532;-1.478;2024-03-08T13:06:55;9.90;99.90
23147;DHT22;11742;53.532;-1.478;2024-03-08T13:09:39;9.90;99.90
23147;DHT22;11742;53.532;-1.478;2024-03-08T13:12:24;9.90;99.90
23147;DHT22;11742;53.532;-1.478;2024-03-08T13:15:08;10.00;99.90
23147;DHT22;11742;53.532;-1.478;2024-03-08T13:17:55;10.00;99.90
23147;DHT22;11742;53.532;-1.478;2024-03-08T13:20:42;10.00;99.90
23147;DHT22;11742;53.532;-1.478;2024-03-08T13:23:28;10.10;99.90
23147;DHT22;11742;53.532;-1.478;2024-03-08T13:26:13;10.10;99.90
23147;DHT22;11742;53.532;-1.478;2024-03-08T13:29:00;10.10;99.90
23147;DHT22;11742;53.532;-1.478;2024-03-08T13:31:44;10.10;99.90
23147;DHT22;11742;53.532;-1.478;2024-03-08T13:34:28;10.20;99.90
23147;DHT22;11742;53.532;-1.478;2024-03-08T13:37:14;10.20;99.90
23147;DHT22;11742;53.532;-1.478;2024-03-08T13:40:00;10.20;99.90
23147;DHT22;11742;53.532;-1.478;2024-03-08T13:42:44;10.20;99.90
23147;DHT22;11742;53.532;-1.478;2024-03-08T13:45:28;10.20;99.90
23147;DHT22;11742;53.532;-1.478;2024-03-08T13:48:12;10.30;99.90
23147;DHT22;11742;53.532;-1.478;2024-03-08T13:50:56;10.30;99.90
23147;DHT22;11742;53.532;-1.478;2024-03-08T13:53:41;10.30;99.90
23147;DHT22;11742;53.532;-1.478;2024-03-08T13:56:25;10.40;99.90
23147;DHT22;11742;53.532;-1.478;2024-03-08T13:59:10;10.40;99.90
23147;DHT22;11742;53.532;-1.478;2024-03-08T14:01:55;10.40;99.90
23147;DHT22;11742;53.532;-1.478;2024-03-08T14:04:41;10.40;99.90
23147;DHT22;11742;53.532;-1.478;2024-03-08T14:07:25;10.40;99.90
23147;DHT22;11742;53.532;-1.478;2024-03-08T14:10:09;10.50;99.90
23147;DHT22;11742;53.532;-1.478;2024-03-08T14:12:54;10.50;99.90
23147;DHT22;11742;53.532;-1.478;2024-03-08T14:15:39;10.50;99.90
23147;DHT22;11742;53.532;-1.478;2024-03-08T14:18:26;10.50;99.90
23147;DHT22;11742;53.532;-1.478;2024-03-08T14:21:10;10.50;99.90
23147;DHT22;11742;53.532;-1.478;2024-03-08T14:23:54;10.50;99.90
23147;DHT22;11742;53.532;-1.478;2024-03-08T14:26:38;10.50;99.90
23147;DHT22;11742;53.532;-1.478;2024-03-08T14:29:22;10.50;99.90
23147;DHT22;11742;53.532;-1.478;2024-03-08T14:32:07;10.50;99.90
23147;DHT22;11742;53.532;-1.478;2024-03-08T14:34:52;10.60;99.90
23147;DHT22;11742;53.532;-1.478;2024-03-08T14:37:36;10.60;99.90
23147;DHT22;11742;53.532;-1.478;2024-03-08T14:40:21;10.60;99.90
23147;DHT22;11742;53.532;-1.478;2024-03-08T14:43:06;10.60;99.90
23147;DHT22;11742;53.532;-1.478;2024-03-08T14:45:50;10.60;99.90
23147;DHT22;11742;53.532;-1.478;2024-03-08T14:48:35;10.60;99.90
23147;DHT22;11742;53.532;-1.478;2024-03-08T14:51:21;10.70;99.90
23147;DHT22;11742;53.532;-1.478;2024-03-08T14:54:09;10.60;99.90
23147;DHT22;11742;53.532;-1.478;2024-03-08T14:56:54;10.70;99.90
23147;DHT22;11742;53.532;-1.478;2024-03-08T14:59:41;10.70;99.90
23147;DHT22;11742;53.532;-1.478;2024-03-08T15:02:27;10.60;99.90
23147;DHT22;11742;53.532;-1.478;2024-03-08T15:05:11;10.70;99.90
23147;DHT22;11742;53.532;-1.478;2024-03-08T15:07:55;10.70;99.90
23147;DHT22;11742;53.532;-1.478;2024-03-08T15:10:39;10.70;99.90
23147;DHT22;11742;53.532;-1.478;2024-03-08T15:13:28;10.70;99.90
23147;DHT22;11742;53.532;-1.478;2024-03-08T15:16:23;10.70;99.90
23147;DHT22;11742;53.532;-1.478;2024-03-08T15:19:08;10.70;99.90
23147;DHT22;11742;53.532;-1.478;2024-03-08T15:21:52;10.70;99.90
23147;DHT22;11742;53.532;-1.478;2024-03-08T15:24:40;10.70;99.90
23147;DHT22;11742;53.532;-1.478;2024-03-08T15:27:27;10.80;99.90
23147;DHT22;11742;53.532;-1.478;2024-03-08T15:30:12;10.80;99.90
23147;DHT22;11742;53.532;-1.478;2024-03-08T15:33:00;10.70;99.90
23147;DHT22;11742;53.532;-1.478;2024-03-08T15:35:47;10.80;99.90
23147;DHT22;11742;53.532;-1.478;2024-03-08T15:38:34;10.80;99.90
23147;DHT22;11742;53.532;-1.478;2024-03-08T15:41:19;10.70;99.90
23147;DHT22;11742;53.532;-1.478;2024-03-08T15:44:04;10.80;99.90
23147;DHT22;11742;53.532;-1.478;2024-03-08T15:46:48;10.80;99.90
23147;DHT22;11742;53.532;-1.478;2024-03-08T15:49:34;10.80;99.90
23147;DHT22;11742;53.532;-1.478;2024-03-08T15:52:18;10.80;99.90
23147;DHT22;11742;53.532;-1.478;2024-03-08T15:55:03;10.80;99.90
23147;DHT22;11742;53.532;-1.478;2024-03-08T15:57:49;10.80;99.90
23147;DHT22;11742;53.532;-1.478;2024-03-08T16:00:34;10.80;99.90
23147;DHT22;11742;53.532;-1.478;2024-03-08T16:03:20;10.80;99.90
23147;DHT22;11742;53.532;-1.478;2024-03-08T16:06:05;10.80;99.90
23147;DHT22;11742;53.532;-1.478;2024-03-08T16:08:50;10.80;99.90
23147;DHT22;11742;53.532;-1.478;2024-03-08T16:11:35;10.80;99.90
23147;DHT22;11742;53.532;-1.478;2024-03-08T16:14:22;10.80;99.90
23147;DHT22;11742;53.532;-1.478;2024-03-08T16:17:06;10.80;99.90
23147;DHT22;11742;53.532;-1.478;2024-03-08T16:19:51;10.80;99.90
23147;DHT22;11742;53.532;-1.478;2024-03-08T16:22:35;10.80;99.90
23147;DHT22;11742;53.532;-1.478;2024-03-08T16:25:19;10.80;99.90
23147;DHT22;11742;53.532;-1.478;2024-03-08T16:28:04;10.80;99.90
23147;DHT22;11742;53.532;-1.478;2024-03-08T16:30:51;10.80;99.90
23147;DHT22;11742;53.532;-1.478;2024-03-08T16:33:38;10.80;99.90
23147;DHT22;11742;53.532;-1.478;2024-03-08T16:36:23;10.80;99.90
23147;DHT22;11742;53.532;-1.478;2024-03-08T16:39:07;10.80;99.90
23147;DHT22;11742;53.532;-1.478;2024-03-08T16:41:53;10.80;99.90
23147;DHT22;11742;53.532;-1.478;2024-03-08T16:44:37;10.80;99.90
23147;DHT22;11742;53.532;-1.478;2024-03-08T16:47:21;10.70;99.90
23147;DHT22;11742;53.532;-1.478;2024-03-08T16:50:07;10.80;99.90
23147;DHT22;11742;53.532;-1.478;2024-03-08T16:52:52;10.80;99.90
23147;DHT22;11742;53.532;-1.478;2024-03-08T16:55:36;10.80;99.90
23147;DHT22;11742;53.532;-1.478;2024-03-08T16:58:21;10.80;99.90
23147;DHT22;11742;53.532;-1.478;2024-03-08T17:01:06;10.80;99.90
23147;DHT22;11742;53.532;-1.478;2024-03-08T17:03:50;10.70;99.90
23147;DHT22;11742;53.532;-1.478;2024-03-08T17:06:36;10.70;99.80
23147;DHT22;11742;53.532;-1.478;2024-03-08T17:09:21;10.70;99.80
23147;DHT22;11742;53.532;-1.478;2024-03-08T17:12:06;10.70;99.90
23147;DHT22;11742;53.532;-1.478;2024-03-08T17:14:54;10.70;99.90
23147;DHT22;11742;53.532;-1.478;2024-03-08T17:17:39;10.70;99.90
23147;DHT22;11742;53.532;-1.478;2024-03-08T17:20:26;10.70;99.90
23147;DHT22;11742;53.532;-1.478;2024-03-08T17:23:11;10.60;99.80
23147;DHT22;11742;53.532;-1.478;2024-03-08T17:26:00;10.70;99.80
23147;DHT22;11742;53.532;-1.478;2024-03-08T17:28:44;10.60;99.70
23147;DHT22;11742;53.532;-1.478;2024-03-08T17:31:28;10.60;99.70